Current Conditions
Partly Cloudy
Conditions



Pressure
1011.52 (mb) - 29.87 (inHG)
Visibility

9.9 (miles) - 16.0 (km)
   Temperature
106  °F
41°C
34  °F
Dewpoint
8  %
 Humidity
   Wind Speed
7  mph
6  kts
11  km/h
3.1  m/s
   Wind Direction
 310°
North West
   Airport Data
KIWA
Location Phoenix-Mesa-Gateway Airport 3 mi (4.83 km)
Metar :KIWA 172247Z 31006KT 10SM FEW150 41/01 A2987
Thu 17th September 15:47 pm
   Raw Metar Info
Raw METAR is the most common format in the world for the transmission of observational weather data. It is highly standardized through the International Civil Aviation Organization (ICAO), which allows it to be understood throughout most of the world.
   API Info
Data Provided by
https://www.checkwx.com/weather/KIWA
   © Info
CSS/SVG/PHP scripts were developed by weather34.com for use in the weather34 template © 2015-2021

Guide Info provided by Metar-Wikipedia